Latest Weather Observations for Maria Island

IDT60901

Issued at 6:25 pm EST Monday 28 July 2014 (issued every 10 minutes, with the page automatically refreshed every 10 minutes)

About weather observations | Map of Hobart area stations | Latest observations for Hobart area | Other Formats
Station Details ID: 092124 Name: MARIA ISLAND (POINT LESUEUR) Lat: -42.66 Lon: 148.02 Height: 28.0 m
Data from the previous 72 hours. | See also: Recent months at Maria Island
Date/Time
EST
Tmp

°C
App
Tmp
°C
Dew
Point
°C
Rel
Hum
%
Delta-T

°C
Wind Press
QNH
hPa
Press
MSL
hPa
Rain
since
9 am
mm
Dir
 
Spd
km/h
Gust
km/h
Spd
kts
Gust
kts
28/06:00pm 12.9 7.5 8.2 73 2.3 N 26 30 14 16 1001.4 1001.4 0.0
28/05:30pm 13.3 7.6 8.2 71 2.5 NNW 28 35 15 19 1001.6 - 0.0
28/05:00pm 13.6 7.5 8.4 71 2.6 NNW 30 35 16 19 1001.7 1001.7 0.0
28/04:30pm 14.3 7.8 8.9 70 2.7 N 33 41 18 22 1001.3 - 0.0
28/04:00pm 14.7 8.2 8.9 68 3.0 N 33 39 18 21 1001.2 1001.2 0.0
28/03:30pm 15.3 8.9 8.5 64 3.4 N 32 37 17 20 1001.6 - 0.0
28/03:00pm 15.3 10.2 9.2 67 3.2 N 26 32 14 17 1002.0 1002.0 0.0
28/02:30pm 15.3 10.6 9.4 68 3.0 N 24 28 13 15 1002.1 - 0.0
28/02:00pm 15.3 10.3 9.4 68 3.1 N 26 32 14 17 1002.3 1002.3 0.0
28/01:30pm 14.6 9.4 9.0 69 2.9 N 26 33 14 18 1002.9 - 0.0
28/01:00pm 14.8 10.5 9.2 69 2.9 N 22 28 12 15 1003.4 1003.4 0.0
28/12:30pm 15.3 11.3 9.2 67 3.1 N 20 24 11 13 1003.7 - 0.0
28/12:00pm 14.3 10.2 8.7 69 2.8 N 20 22 11 12 1004.2 1004.2 0.0
28/11:30am 15.4 11.6 9.1 66 3.2 N 19 26 10 14 1004.7 - 0.0
28/11:00am 14.9 10.2 9.1 68 3.0 N 24 32 13 17 1005.2 1005.2 0.0
28/10:30am 14.4 9.9 10.0 75 2.3 N 24 30 13 16 1005.5 - 0.0
28/10:00am 14.0 9.0 9.6 75 2.3 N 26 30 14 16 1005.8 1005.8 0.0
28/09:30am 14.0 10.9 10.2 78 2.0 N 17 20 9 11 1006.0 - 0.0
28/09:00am 13.4 9.2 9.8 79 1.9 N 22 26 12 14 1005.9 1005.9 0.0
28/08:30am 13.1 7.3 9.5 79 1.8 N 30 33 16 18 1005.9 - 0.0
28/08:00am 12.7 7.6 9.3 80 1.7 N 26 32 14 17 1006.0 1006.0 0.0
28/07:30am 12.6 7.9 9.2 80 1.7 N 24 28 13 15 1006.5 - 0.0
28/07:00am 12.7 8.4 9.2 79 1.8 N 22 26 12 14 1006.9 1006.9 0.0
28/06:30am 12.8 7.7 9.3 79 1.8 N 26 30 14 16 1006.6 - 0.0
28/06:00am 12.9 6.6 9.0 77 2.0 N 32 37 17 20 1006.3 1006.3 0.0
28/05:30am 12.9 6.6 9.0 77 2.0 N 32 39 17 21 1006.2 - 0.0
28/05:00am 12.6 6.1 9.1 79 1.8 N 33 43 18 23 1006.6 1006.6 0.0
28/04:30am 12.4 4.8 9.1 80 1.7 N 39 46 21 25 1006.4 - 0.0
28/04:00am 12.4 4.4 8.9 79 1.8 N 41 48 22 26 1006.4 1006.4 0.0
28/03:30am 12.3 4.2 8.8 79 1.7 N 41 48 22 26 1006.9 - 0.0
28/03:00am 12.2 4.9 8.7 79 1.7 N 37 41 20 22 1007.6 1007.6 0.0
28/02:30am 12.1 5.5 8.6 79 1.7 N 33 39 18 21 1008.4 - 0.0
28/02:00am 12.0 5.4 8.7 80 1.6 N 33 39 18 21 1008.5 1008.5 0.0
28/01:30am 12.3 4.6 8.8 79 1.7 N 39 44 21 24 1008.3 - 0.0
28/01:00am 12.2 6.3 9.0 81 1.6 N 30 35 16 19 1009.0 1009.0 0.0
28/12:30am 12.1 4.8 8.9 81 1.6 NNW 37 43 20 23 1009.2 - 0.0
28/12:00am 12.2 5.3 8.9 80 1.7 NNW 35 39 19 21 1009.4 1009.4 0.0
 
Date/Time
EST
Tmp

°C
App
Tmp
°C
Dew
Point
°C
Rel
Hum
%
Delta-T

°C
Wind Press
QNH
hPa
Press
MSL
hPa
Rain
since
9 am
mm
Dir
 
Spd
km/h
Gust
km/h
Spd
kts
Gust
kts
27/11:30pm 12.2 6.3 8.9 80 1.7 NNW 30 35 16 19 1010.1 - 0.0
27/11:00pm 12.3 6.0 9.0 80 1.7 N 32 37 17 20 1010.3 1010.3 0.0
27/10:30pm 12.2 6.3 8.9 80 1.7 N 30 37 16 20 1010.9 - 0.0
27/10:00pm 12.3 5.8 8.8 79 1.8 NNW 33 41 18 22 1011.3 1011.3 0.0
27/09:30pm 12.1 6.5 8.8 80 1.6 N 28 35 15 19 1011.8 - 0.0
27/09:00pm 12.1 6.1 8.8 80 1.6 N 30 35 16 19 1011.9 1011.9 0.0
27/08:30pm 11.9 6.6 8.4 79 1.7 N 26 32 14 17 1012.2 - 0.0
27/08:00pm 11.8 7.6 8.1 78 1.8 N 20 26 11 14 1012.7 1012.7 0.0
27/07:30pm 11.9 7.5 7.6 75 2.1 N 20 28 11 15 1013.0 - 0.0
27/07:00pm 11.9 7.7 8.2 78 1.8 N 20 24 11 13 1012.9 1012.9 0.0
27/06:30pm 11.8 7.7 7.9 77 1.9 N 19 22 10 12 1013.1 - 0.0
27/06:00pm 11.7 8.4 8.0 78 1.8 N 15 20 8 11 1013.3 1013.3 0.0
27/05:30pm 11.7 8.3 7.8 77 1.9 N 15 17 8 9 1013.4 - 0.0
27/05:00pm 11.6 8.2 7.5 76 2.0 NNW 15 19 8 10 1013.5 1013.5 0.0
27/04:30pm 11.6 7.7 7.3 75 2.1 NW 17 19 9 10 1013.7 - 0.0
27/04:00pm 11.7 7.0 7.8 77 1.9 NNW 22 26 12 14 1013.7 1013.7 0.0
27/03:30pm 11.6 4.9 7.5 76 2.0 NNW 32 37 17 20 1013.5 - 0.0
27/03:00pm 11.7 4.5 7.8 77 1.9 N 35 41 19 22 1013.8 1013.8 0.0
27/02:30pm 11.9 4.6 7.4 74 2.2 N 35 41 19 22 1014.0 - 0.0
27/02:00pm 12.7 7.4 8.4 75 2.1 N 26 32 14 17 1014.3 1014.3 0.0
27/01:30pm 14.0 10.0 8.4 69 2.8 NNW 19 24 10 13 1014.9 - 0.0
27/01:00pm 13.9 10.1 8.9 72 2.5 N 19 20 10 11 1015.3 1015.3 0.0
27/12:30pm 13.5 9.4 8.6 72 2.5 N 20 22 11 12 1015.9 - 0.0
27/12:00pm 13.3 10.6 9.0 75 2.2 N 13 17 7 9 1016.5 1016.5 0.0
27/11:30am 11.9 8.8 8.9 82 1.5 N 15 17 8 9 1017.1 - 0.0
27/11:00am 11.7 7.8 8.6 81 1.5 N 19 20 10 11 1017.9 1017.9 0.0
27/10:30am 11.4 7.9 8.8 84 1.3 N 17 20 9 11 1018.6 - 0.0
27/10:00am 10.4 8.4 8.7 89 0.8 NNW 9 11 5 6 1019.3 1019.3 0.0
27/09:30am 9.8 8.3 8.4 91 0.7 N 6 7 3 4 1019.4 - 0.0
27/09:00am 9.9 8.5 8.7 92 0.6 N 6 7 3 4 1019.5 1019.5 0.4
27/08:30am 8.6 5.9 7.5 93 0.5 WNW 11 13 6 7 1019.4 - 0.4
27/08:00am 8.2 6.5 7.6 96 0.3 N 6 7 3 4 1019.2 1019.2 0.4
27/07:30am 8.3 6.5 7.9 97 0.2 NNW 7 9 4 5 1019.3 - 0.4
27/07:00am 7.7 5.0 7.3 97 0.2 NNE 11 13 6 7 1019.0 1019.0 0.2
27/06:30am 8.4 6.2 8.0 97 0.2 N 9 13 5 7 1019.2 - 0.2
27/06:00am 8.6 8.2 8.2 97 0.2 CALM 0 4 0 2 1019.1 1019.1 0.2
27/05:30am 8.5 7.3 8.1 97 0.2 WNW 4 6 2 3 1019.2 - 0.2
27/05:00am 8.8 7.7 8.4 97 0.2 NW 4 6 2 3 1019.4 1019.4 0.2
27/04:30am 8.1 6.4 7.7 97 0.2 N 6 6 3 3 1019.5 - 0.2
27/04:00am 8.2 6.3 7.6 96 0.3 NW 7 9 4 5 1019.7 1019.7 0.2
27/03:30am 8.9 7.8 8.5 97 0.2 N 4 6 2 3 1019.7 - 0.2
27/03:00am 9.0 7.5 8.6 97 0.2 NW 6 7 3 4 1020.0 1020.1 0.2
27/02:30am 8.6 6.9 8.3 98 0.1 NW 7 7 4 4 1020.0 - 0.2
27/02:00am 8.5 6.8 8.2 98 0.1 WNW 7 9 4 5 1020.4 1020.5 0.0
27/01:30am 8.9 7.4 8.5 97 0.2 W 6 7 3 4 1020.2 - 0.0
27/01:00am 9.4 8.4 8.9 97 0.2 WSW 4 7 2 4 1020.4 1020.5 0.0
27/12:30am 9.6 8.1 9.1 97 0.2 S 7 9 4 5 1020.8 - 0.0
27/12:00am 9.4 9.2 8.9 97 0.2 CALM 0 0 0 0 1021.0 1021.1 0.0
 
Date/Time
EST
Tmp

°C
App
Tmp
°C
Dew
Point
°C
Rel
Hum
%
Delta-T

°C
Wind Press
QNH
hPa
Press
MSL
hPa
Rain
since
9 am
mm
Dir
 
Spd
km/h
Gust
km/h
Spd
kts
Gust
kts
26/11:30pm 9.7 9.5 9.2 97 0.2 CALM 0 0 0 0 1021.1 - 0.0
26/11:00pm 9.4 8.4 8.9 97 0.2 WNW 4 6 2 3 1021.2 1021.3 0.0
26/10:30pm 9.3 7.9 8.8 97 0.2 NW 6 7 3 4 1021.0 - 0.0
26/10:00pm 9.7 9.2 9.2 97 0.2 NNW 2 7 1 4 1021.0 1021.1 0.0
26/09:30pm 10.2 10.1 9.6 96 0.3 CALM 0 0 0 0 1020.7 - 0.0
26/09:00pm 9.9 8.6 9.3 96 0.3 W 6 7 3 4 1020.8 1020.9 0.0
26/08:30pm 9.6 8.1 9.0 96 0.3 W 7 11 4 6 1020.6 - 0.0
26/08:00pm 10.6 10.7 10.0 96 0.3 CALM 0 0 0 0 1020.4 1020.5 0.0
26/07:30pm 10.7 10.7 9.9 95 0.4 CALM 0 0 0 0 1020.4 - 0.0
26/07:00pm 10.5 9.7 9.7 95 0.4 NE 4 4 2 2 1020.4 1020.5 0.0
26/06:30pm 10.8 9.7 10.0 95 0.4 W 6 7 3 4 1020.2 - 0.0
26/06:00pm 11.0 9.7 9.9 93 0.6 W 7 11 4 6 1020.0 1020.1 0.0
26/05:30pm 11.5 11.2 10.2 92 0.7 SW 2 4 1 2 1019.6 - 0.0
26/05:00pm 11.5 10.5 10.2 92 0.7 SSW 6 7 3 4 1019.5 1019.5 0.0
26/04:30pm 12.0 12.1 10.1 88 1.0 CALM 0 2 0 1 1019.4 - 0.0
26/04:00pm 12.6 11.6 10.3 86 1.2 SSW 6 6 3 3 1019.3 1019.3 0.0
26/03:30pm 12.7 12.0 10.1 84 1.3 S 4 6 2 3 1019.1 - 0.0
26/03:00pm 12.8 11.6 10.3 85 1.3 S 7 9 4 5 1018.9 1018.9 0.0
26/02:30pm 12.9 11.7 10.3 84 1.3 SSW 7 9 4 5 1019.0 - 0.0
26/02:00pm 12.5 10.5 10.2 86 1.2 S 11 13 6 7 1019.0 1019.0 0.0
26/01:30pm 12.4 9.2 10.1 86 1.2 S 17 17 9 9 1018.9 - 0.0
26/01:00pm 12.0 9.2 9.9 87 1.1 S 15 19 8 10 1019.4 1019.4 0.0
26/12:30pm 11.9 9.1 10.0 88 1.0 S 15 20 8 11 1019.5 - 0.0
26/12:00pm 11.8 9.8 10.0 89 0.9 S 11 13 6 7 1019.7 1019.7 0.0
26/11:30am 11.7 9.7 10.1 90 0.8 S 11 13 6 7 1020.1 - 0.0
26/11:00am 11.5 9.5 10.1 91 0.7 S 11 13 6 7 1020.2 1020.3 0.0
26/10:30am 11.2 8.3 9.6 90 0.8 S 15 15 8 8 1020.4 - 0.0
26/10:00am 11.2 10.1 9.8 91 0.7 S 6 11 3 6 1020.3 1020.4 0.0
26/09:30am 10.8 10.7 9.6 92 0.6 CALM 0 4 0 2 1020.4 - 0.0
26/09:00am 10.5 9.6 9.4 93 0.5 NNW 4 7 2 4 1020.2 1020.3 0.0
26/08:30am 10.1 8.7 9.0 93 0.5 NNW 6 9 3 5 1019.9 - 0.0
26/08:00am 10.2 9.2 9.0 92 0.6 NW 4 7 2 4 1019.5 1019.5 0.0
26/07:30am 10.4 9.1 9.2 92 0.6 N 6 7 3 4 1019.5 - 0.0
26/07:00am 10.7 9.9 9.6 93 0.6 N 4 6 2 3 1019.3 1019.3 0.0
26/06:30am 10.6 9.4 9.7 94 0.5 S 6 7 3 4 1019.2 - 0.0
26/06:00am 10.3 9.8 9.2 93 0.5 SSE 2 6 1 3 1019.0 1019.0 0.0
26/05:30am 10.5 9.7 9.6 94 0.5 SW 4 7 2 4 1018.9 - 0.0
26/05:00am 10.4 9.6 9.6 95 0.4 S 4 7 2 4 1018.9 1018.9 0.0
26/04:30am 10.5 9.1 9.7 95 0.4 S 7 9 4 5 1018.7 - 0.0
26/04:00am 10.1 10.0 9.3 95 0.4 CALM 0 4 0 2 1018.5 1018.5 0.0
26/03:30am 9.8 8.9 9.2 96 0.3 NW 4 6 2 3 1018.5 - 0.0
26/03:00am 9.3 8.2 8.5 95 0.4 NNW 4 4 2 2 1018.6 1018.6 0.0
26/02:30am 9.6 8.6 8.8 95 0.4 WNW 4 4 2 2 1018.6 - 0.0
26/02:00am 9.8 9.2 9.0 95 0.4 N 2 4 1 2 1018.6 1018.6 0.0
26/01:30am 9.3 9.0 8.5 95 0.4 CALM 0 0 0 0 1018.5 - 0.0
26/01:00am 9.6 9.3 8.7 94 0.4 CALM 0 0 0 0 1018.5 1018.5 0.0
26/12:30am 10.1 9.6 9.2 94 0.4 NW 2 4 1 2 1018.7 - 0.0
26/12:00am 10.0 8.7 9.1 94 0.4 N 6 7 3 4 1018.6 1018.6 0.0
 
Date/Time
EST
Tmp

°C
App
Tmp
°C
Dew
Point
°C
Rel
Hum
%
Delta-T

°C
Wind Press
QNH
hPa
Press
MSL
hPa
Rain
since
9 am
mm
Dir
 
Spd
km/h
Gust
km/h
Spd
kts
Gust
kts
25/11:30pm 10.0 9.0 8.9 93 0.5 NNW 4 6 2 3 1018.8 - 0.0
25/11:00pm 10.4 10.2 9.2 92 0.6 CALM 0 0 0 0 1018.7 1018.7 0.0
25/10:30pm 10.5 10.3 9.1 91 0.7 CALM 0 0 0 0 1018.8 - 0.0
25/10:00pm 10.4 9.0 8.7 89 0.8 SW 6 7 3 4 1018.7 1018.7 0.0
25/09:30pm 11.0 10.3 8.6 85 1.2 NNE 2 4 1 2 1018.7 - 0.0
25/09:00pm 11.2 10.1 8.6 84 1.3 NNE 4 6 2 3 1018.8 1018.8 0.0
25/08:30pm 11.7 10.2 9.1 84 1.3 N 7 11 4 6 1018.6 - 0.0
25/08:00pm 11.2 9.7 9.1 87 1.0 N 7 11 4 6 1018.2 1018.2 0.0
25/07:30pm 10.7 9.1 8.6 87 1.0 NNE 7 9 4 5 1018.2 - 0.0
25/07:00pm 10.8 8.9 9.1 89 0.8 NNE 9 9 5 5 1018.2 1018.2 0.0
25/06:30pm 10.3 8.3 8.6 89 0.8 NE 9 13 5 7 1017.7 - 0.0

Latest Capital City Observations: Canberra | Sydney | Melbourne | Brisbane | Adelaide | Perth | Hobart | Darwin

Other Formats:

Comma delimited format used in spreadsheet applications
http://www.bom.gov.au/fwo/IDT60901/IDT60901.95988.axf

JavaScript Object Notation format (JSON) in row-major order
http://www.bom.gov.au/fwo/IDT60901/IDT60901.95988.json